Time;durP1;ratioP1;P1;durP2;ratioP2;P2;SDS_P1;SDS_P2;PMS_P1;PMS_P2;Temp;Humidity;BMP_temperature;BMP_pressure;BME280_temperature;BME280_humidity;BME280_pressure;Samples;Min_cycle;Max_cycle;Signal;HPM_P1;HPM_P2
2022/09/23 00:01:58;;;;;;;5.47;4.68;;;9.80;99.90;;;;;;5092032;28;20198;-65
2022/09/23 00:04:28;;;;;;;4.95;4.55;;;9.80;99.90;;;;;;5092490;28;20222;-65
2022/09/23 00:06:56;;;;;;;5.20;4.80;;;9.80;99.90;;;;;;5092497;28;20199;-65
2022/09/23 00:09:24;;;;;;;6.72;4.43;;;9.80;99.90;;;;;;5092717;28;20224;-65
2022/09/23 00:11:52;;;;;;;4.65;4.20;;;9.70;99.90;;;;;;5092374;28;20195;-65
2022/09/23 00:14:20;;;;;;;5.28;4.78;;;9.70;99.90;;;;;;5092877;28;20206;-65
2022/09/23 00:16:49;;;;;;;5.47;4.60;;;9.70;99.90;;;;;;5092704;28;20195;-65
2022/09/23 00:19:17;;;;;;;5.47;4.55;;;9.70;99.90;;;;;;5089129;28;20207;-65
2022/09/23 00:21:45;;;;;;;4.45;4.07;;;9.80;99.90;;;;;;5092410;28;20232;-65
2022/09/23 00:24:14;;;;;;;10.95;4.85;;;9.70;99.90;;;;;;5092637;28;20219;-65
2022/09/23 00:26:42;;;;;;;4.45;4.03;;;9.70;99.90;;;;;;5092410;28;20209;-65
2022/09/23 00:29:10;;;;;;;5.85;4.43;;;9.60;99.90;;;;;;5091362;28;20203;-65
2022/09/23 00:31:38;;;;;;;4.05;3.65;;;9.40;99.90;;;;;;5091563;28;20669;-65
2022/09/23 00:34:11;;;;;;;5.05;4.30;;;9.20;99.90;;;;;;5092808;28;20295;-65
2022/09/23 00:36:39;;;;;;;6.20;4.60;;;9.10;99.90;;;;;;5091899;28;20196;-65
2022/09/23 00:39:07;;;;;;;8.52;4.00;;;8.90;99.90;;;;;;5092251;28;20207;-65
2022/09/23 00:41:35;;;;;;;4.47;4.05;;;9.00;99.90;;;;;;5091996;28;20210;-65
2022/09/23 00:44:18;;;;;;;5.13;4.63;;;9.00;99.90;;;;;;5092227;28;20227;-65
2022/09/23 00:46:46;;;;;;;5.60;4.50;;;9.00;99.90;;;;;;5091601;28;20214;-65
2022/09/23 00:49:21;;;;;;;4.20;3.80;;;9.00;99.90;;;;;;5092032;28;20214;-65
2022/09/23 00:51:54;;;;;;;5.90;4.63;;;9.10;99.90;;;;;;5091259;28;20190;-65
2022/09/23 00:54:23;;;;;;;4.63;4.22;;;9.00;99.90;;;;;;5090443;28;20199;-65
2022/09/23 00:56:51;;;;;;;4.57;4.07;;;9.00;99.90;;;;;;5091492;28;20223;-65
2022/09/23 00:59:20;;;;;;;5.25;4.20;;;9.00;99.90;;;;;;5090500;28;20204;-65
2022/09/23 01:01:49;;;;;;;4.15;3.72;;;8.90;99.90;;;;;;5091416;28;20976;-65
2022/09/23 01:04:19;;;;;;;4.90;4.32;;;8.90;99.90;;;;;;5091336;28;20222;-65
2022/09/23 01:06:47;;;;;;;5.38;4.10;;;9.00;99.90;;;;;;5090971;28;20192;-65
2022/09/23 01:09:15;;;;;;;7.28;4.22;;;9.00;99.90;;;;;;5090733;28;20210;-65
2022/09/23 01:11:52;;;;;;;5.28;4.72;;;9.00;99.90;;;;;;5091062;28;20191;-65
2022/09/23 01:14:33;;;;;;;5.18;4.57;;;8.80;99.90;;;;;;5090176;28;20551;-65
2022/09/23 01:17:08;;;;;;;8.82;5.20;;;8.80;99.90;;;;;;5091034;28;20195;-65
2022/09/23 01:20:12;;;;;;;4.90;4.40;;;8.80;99.90;;;;;;5082147;28;20274;-65
2022/09/23 01:22:45;;;;;;;5.22;4.00;;;8.80;99.90;;;;;;5091285;28;20205;-65
2022/09/23 01:25:34;;;;;;;6.35;4.57;;;8.70;99.90;;;;;;5090133;28;20192;-65
2022/09/23 01:28:22;;;;;;;6.63;4.03;;;8.70;99.90;;;;;;5089719;28;20210;-65
2022/09/23 01:30:57;;;;;;;7.15;4.10;;;8.80;99.90;;;;;;5089479;28;20692;-65
2022/09/23 01:33:33;;;;;;;4.43;4.10;;;8.80;99.90;;;;;;5090598;28;20183;-65
2022/09/23 01:36:10;;;;;;;7.95;3.90;;;8.80;99.90;;;;;;5090248;28;20191;-65
2022/09/23 01:38:45;;;;;;;5.15;4.03;;;8.70;99.90;;;;;;5089187;28;20604;-66
2022/09/23 01:41:25;;;;;;;5.45;5.05;;;8.70;99.90;;;;;;5089901;28;20638;-65
2022/09/23 01:43:59;;;;;;;4.82;4.43;;;8.70;99.90;;;;;;5089484;28;20260;-65
2022/09/23 01:46:33;;;;;;;4.60;4.30;;;8.50;99.90;;;;;;5090305;28;20183;-65
2022/09/23 01:49:09;;;;;;;7.03;4.60;;;8.40;99.90;;;;;;5090365;28;20558;-65
2022/09/23 01:51:41;;;;;;;4.60;4.20;;;8.30;99.90;;;;;;5090650;28;20195;-65
2022/09/23 01:54:14;;;;;;;6.32;4.20;;;8.20;99.90;;;;;;5089984;28;20693;-65
2022/09/23 01:56:51;;;;;;;4.95;4.57;;;8.10;99.90;;;;;;5090354;28;20227;-65
2022/09/23 01:59:23;;;;;;;4.30;3.95;;;8.00;99.90;;;;;;5090112;28;20187;-65
2022/09/23 02:01:56;;;;;;;4.70;4.40;;;8.00;99.90;;;;;;5090056;28;20579;-66
2022/09/23 02:04:30;;;;;;;4.75;4.35;;;7.90;99.90;;;;;;5089437;28;20602;-65
2022/09/23 02:07:03;;;;;;;4.85;4.55;;;7.80;99.90;;;;;;5071970;28;20195;-65
2022/09/23 02:09:36;;;;;;;5.30;4.80;;;7.70;99.90;;;;;;5089229;28;20195;-65
2022/09/23 02:12:11;;;;;;;5.50;4.68;;;7.70;99.90;;;;;;5089851;28;20199;-66
2022/09/23 02:14:45;;;;;;;6.05;5.45;;;7.70;99.90;;;;;;5089716;28;20191;-65
2022/09/23 02:17:21;;;;;;;5.47;4.95;;;7.70;99.90;;;;;;5089434;28;20646;-65
2022/09/23 02:19:53;;;;;;;5.85;5.22;;;7.80;99.90;;;;;;5087949;28;20872;-65
2022/09/23 02:22:25;;;;;;;8.07;4.03;;;7.80;99.90;;;;;;5086528;28;20661;-66
2022/09/23 02:24:55;;;;;;;6.35;5.43;;;7.90;99.90;;;;;;5091164;28;20207;-65
2022/09/23 02:27:30;;;;;;;4.85;4.45;;;7.90;99.90;;;;;;5094014;28;20207;-65
2022/09/23 02:30:07;;;;;;;5.65;5.15;;;7.90;99.90;;;;;;5093036;28;20191;-65
2022/09/23 02:32:47;;;;;;;5.15;4.75;;;7.90;99.90;;;;;;5093508;28;20592;-65
2022/09/23 02:35:23;;;;;;;5.07;4.68;;;7.90;99.90;;;;;;5094132;28;20540;-65
2022/09/23 02:37:58;;;;;;;5.85;5.18;;;7.80;99.90;;;;;;5093546;28;20521;-65
2022/09/23 02:40:36;;;;;;;4.72;4.22;;;7.70;99.90;;;;;;5094497;28;20741;-66
2022/09/23 02:43:10;;;;;;;5.18;4.78;;;7.60;99.90;;;;;;5093272;28;20587;-66
2022/09/23 02:45:38;;;;;;;5.90;5.35;;;7.50;99.90;;;;;;5093338;28;20883;-63
2022/09/23 02:48:13;;;;;;;6.15;5.55;;;7.50;99.90;;;;;;5092971;28;20654;-63
2022/09/23 02:50:41;;;;;;;5.20;4.80;;;7.40;99.90;;;;;;5093704;28;20187;-64
2022/09/23 02:53:09;;;;;;;4.57;4.28;;;7.50;99.90;;;;;;5093176;28;20210;-64
2022/09/23 02:55:40;;;;;;;5.55;4.97;;;7.60;99.90;;;;;;5093660;28;20287;-64
2022/09/23 02:58:09;;;;;;;6.70;5.05;;;7.70;99.90;;;;;;5092503;28;20661;-64
2022/09/23 03:00:49;;;;;;;5.28;4.78;;;7.70;99.90;;;;;;5093344;28;20203;-64
2022/09/23 03:03:35;;;;;;;5.75;5.32;;;7.80;99.90;;;;;;5092572;28;20323;-64
2022/09/23 03:06:15;;;;;;;7.95;5.82;;;7.90;99.90;;;;;;5090397;28;20663;-64
2022/09/23 03:08:49;;;;;;;5.10;4.70;;;7.90;99.90;;;;;;5092428;28;20199;-64
2022/09/23 03:11:17;;;;;;;4.93;4.57;;;7.90;99.90;;;;;;5093379;28;20217;-64
2022/09/23 03:14:05;;;;;;;8.57;5.57;;;7.90;99.90;;;;;;5091746;28;20211;-64
2022/09/23 03:16:42;;;;;;;6.82;5.45;;;7.80;99.90;;;;;;5092292;28;20210;-64
2022/09/23 03:19:21;;;;;;;5.40;5.00;;;7.60;99.90;;;;;;5091400;28;20561;-64
2022/09/23 03:21:56;;;;;;;5.65;5.15;;;7.50;99.90;;;;;;5093098;28;20192;-64
2022/09/23 03:24:26;;;;;;;8.18;5.50;;;7.40;99.90;;;;;;5092909;28;20677;-64
2022/09/23 03:26:55;;;;;;;6.82;5.93;;;7.20;99.90;;;;;;5091845;28;20257;-64
2022/09/23 03:29:24;;;;;;;5.70;5.20;;;7.10;99.90;;;;;;5092405;28;20571;-64
2022/09/23 03:31:53;;;;;;;6.03;5.53;;;7.00;99.90;;;;;;5092105;28;20205;-64
2022/09/23 03:34:25;;;;;;;6.57;5.95;;;7.00;99.90;;;;;;5092850;28;20227;-64
2022/09/23 03:36:59;;;;;;;12.10;6.50;;;7.00;99.90;;;;;;5091712;28;20202;-64
2022/09/23 03:39:33;;;;;;;6.50;5.80;;;7.10;99.90;;;;;;5093021;28;20259;-64
2022/09/23 03:42:06;;;;;;;5.40;4.90;;;7.10;99.90;;;;;;5092336;28;20637;-64
2022/09/23 03:44:38;;;;;;;5.03;4.60;;;7.20;99.90;;;;;;5092704;28;20232;-64
2022/09/23 03:47:06;;;;;;;5.60;4.97;;;7.20;99.90;;;;;;5091550;28;20187;-64
2022/09/23 03:49:38;;;;;;;9.45;5.32;;;7.20;99.90;;;;;;5092397;28;20205;-64
2022/09/23 03:52:06;;;;;;;6.55;6.00;;;7.30;99.90;;;;;;5092247;28;20655;-64
2022/09/23 03:54:34;;;;;;;6.57;5.88;;;7.30;99.90;;;;;;5092660;28;20558;-64
2022/09/23 03:57:03;;;;;;;6.00;5.60;;;7.40;99.90;;;;;;5090351;28;20219;-64
2022/09/23 03:59:31;;;;;;;5.60;5.10;;;7.40;99.90;;;;;;5091639;28;20203;-64
2022/09/23 04:02:00;;;;;;;5.53;5.03;;;7.40;99.90;;;;;;5089928;28;20209;-64
2022/09/23 04:04:28;;;;;;;5.97;4.60;;;7.40;99.90;;;;;;5091787;28;20218;-64
2022/09/23 04:06:58;;;;;;;6.57;5.88;;;7.40;99.90;;;;;;5091833;28;20236;-64
2022/09/23 04:09:26;;;;;;;5.22;4.75;;;7.30;99.90;;;;;;5092046;28;20207;-64
2022/09/23 04:11:54;;;;;;;5.68;5.18;;;7.20;99.90;;;;;;5092554;28;20710;-64
2022/09/23 04:14:23;;;;;;;6.75;6.05;;;7.10;99.90;;;;;;5092829;28;20191;-64
2022/09/23 04:16:51;;;;;;;5.55;5.00;;;6.90;99.90;;;;;;5091609;28;20191;-64
2022/09/23 04:19:19;;;;;;;5.53;5.03;;;6.80;99.90;;;;;;5092862;28;20260;-64
2022/09/23 04:21:47;;;;;;;7.68;6.57;;;6.90;99.90;;;;;;5091646;28;20214;-63
2022/09/23 04:24:17;;;;;;;5.28;4.70;;;6.90;99.90;;;;;;5091925;28;20658;-64
2022/09/23 04:26:45;;;;;;;6.13;5.63;;;6.90;99.90;;;;;;5092577;28;20198;-64
2022/09/23 04:29:13;;;;;;;6.22;4.53;;;6.80;99.90;;;;;;5092308;28;20199;-64
2022/09/23 04:31:40;;;;;;;6.18;5.72;;;6.80;99.90;;;;;;5089931;28;20256;-64
2022/09/23 04:34:09;;;;;;;6.20;5.60;;;6.80;99.90;;;;;;5090262;28;20250;-64
2022/09/23 04:36:37;;;;;;;7.85;7.13;;;6.80;99.90;;;;;;5091992;28;20196;-64
2022/09/23 04:39:05;;;;;;;7.28;6.68;;;6.90;99.90;;;;;;5090354;28;20214;-64
2022/09/23 04:41:37;;;;;;;7.90;7.10;;;6.90;99.90;;;;;;5036187;28;20208;-64
2022/09/23 04:44:05;;;;;;;13.55;6.45;;;6.90;99.90;;;;;;5081766;28;20203;-64
2022/09/23 04:46:33;;;;;;;8.45;6.47;;;7.00;99.90;;;;;;5091514;28;20229;-64
2022/09/23 04:49:01;;;;;;;11.20;8.88;;;7.00;99.90;;;;;;5089869;28;20210;-64
2022/09/23 04:51:29;;;;;;;7.72;7.00;;;7.00;99.90;;;;;;5091616;28;20214;-64
2022/09/23 04:53:57;;;;;;;7.72;6.63;;;7.10;99.90;;;;;;5090681;28;20654;-64
2022/09/23 04:56:27;;;;;;;8.23;7.45;;;7.10;99.90;;;;;;5090551;28;20210;-64
2022/09/23 04:58:57;;;;;;;7.38;6.72;;;7.10;99.90;;;;;;5090848;28;20557;-64
2022/09/23 05:01:26;;;;;;;6.10;5.53;;;7.10;99.90;;;;;;5090884;28;20210;-64
2022/09/23 05:03:56;;;;;;;7.07;5.22;;;7.10;99.90;;;;;;5082237;28;20212;-64
2022/09/23 05:06:24;;;;;;;6.63;6.05;;;7.10;99.90;;;;;;5076328;28;20219;-64
2022/09/23 05:08:54;;;;;;;6.25;5.65;;;7.10;99.90;;;;;;5090745;28;20195;-64
2022/09/23 05:11:23;;;;;;;6.57;5.35;;;7.10;99.90;;;;;;5089681;28;20203;-64
2022/09/23 05:13:53;;;;;;;9.68;4.93;;;7.10;99.90;;;;;;5090784;28;20203;-64
2022/09/23 05:16:23;;;;;;;14.55;6.63;;;7.10;99.90;;;;;;5086793;28;20553;-64
2022/09/23 05:18:52;;;;;;;8.02;6.93;;;7.10;99.90;;;;;;5083735;28;20251;-64
2022/09/23 05:21:22;;;;;;;8.30;6.95;;;7.10;99.90;;;;;;5090942;28;20203;-64
2022/09/23 05:23:53;;;;;;;7.28;6.57;;;7.10;99.90;;;;;;5091917;28;20574;-64
2022/09/23 05:26:21;;;;;;;6.45;5.90;;;7.00;99.90;;;;;;5089848;28;20214;-64
2022/09/23 05:28:49;;;;;;;7.68;6.90;;;7.00;99.90;;;;;;5089989;28;20197;-65
2022/09/23 05:31:26;;;;;;;5.43;5.00;;;6.90;99.90;;;;;;5090218;28;20183;-64
2022/09/23 05:33:57;;;;;;;6.25;5.65;;;6.80;99.90;;;;;;5091046;28;20283;-64
2022/09/23 05:36:26;;;;;;;7.70;5.97;;;6.90;99.90;;;;;;5088526;28;20195;-64
2022/09/23 05:38:55;;;;;;;7.55;6.85;;;7.00;99.90;;;;;;5091363;28;20195;-64
2022/09/23 05:41:25;;;;;;;8.70;6.70;;;7.20;99.90;;;;;;5091270;28;20530;-65
2022/09/23 05:43:54;;;;;;;11.73;6.28;;;7.30;99.90;;;;;;5090754;28;20207;-65
2022/09/23 05:46:26;;;;;;;7.60;6.90;;;7.40;99.90;;;;;;5088778;28;21323;-65
2022/09/23 05:48:55;;;;;;;7.47;6.88;;;7.60;99.90;;;;;;5090337;28;21216;-66
2022/09/23 05:51:25;;;;;;;7.18;6.38;;;7.80;99.90;;;;;;5091249;28;20191;-65
2022/09/23 05:53:54;;;;;;;7.50;5.63;;;7.80;99.90;;;;;;5091646;28;20206;-65
2022/09/23 05:56:24;;;;;;;7.13;5.90;;;8.00;99.90;;;;;;5090391;28;20242;-65
2022/09/23 05:58:53;;;;;;;7.65;5.90;;;8.10;99.90;;;;;;5090385;28;20199;-65
2022/09/23 06:01:23;;;;;;;7.35;6.65;;;8.20;99.90;;;;;;5091350;28;20446;-65
2022/09/23 06:03:54;;;;;;;8.75;7.95;;;8.30;99.90;;;;;;5091073;28;20211;-66
2022/09/23 06:06:27;;;;;;;8.35;7.57;;;8.30;99.90;;;;;;5090811;28;20612;-65
2022/09/23 06:08:55;;;;;;;6.35;5.75;;;8.30;99.90;;;;;;5090411;28;20199;-65
2022/09/23 06:11:22;;;;;;;5.78;5.20;;;8.30;99.90;;;;;;5090154;28;20661;-66
2022/09/23 06:13:55;;;;;;;8.50;5.55;;;8.40;99.90;;;;;;5090391;28;20557;-66
2022/09/23 06:16:23;;;;;;;8.90;6.35;;;8.40;99.90;;;;;;5090014;28;20191;-66
2022/09/23 06:18:51;;;;;;;7.07;5.80;;;8.50;99.90;;;;;;5089150;28;20199;-66
2022/09/23 06:21:20;;;;;;;5.97;5.47;;;8.50;99.90;;;;;;5081082;28;20204;-65
2022/09/23 06:23:48;;;;;;;9.27;5.60;;;8.60;99.90;;;;;;5090843;28;20214;-65
2022/09/23 06:26:16;;;;;;;6.80;6.10;;;8.70;99.90;;;;;;5090000;28;20589;-66
2022/09/23 06:28:45;;;;;;;7.80;7.10;;;8.80;99.90;;;;;;5090686;28;20805;-65
2022/09/23 06:31:15;;;;;;;8.20;6.40;;;8.80;99.90;;;;;;5088540;28;20198;-66
2022/09/23 06:33:44;;;;;;;7.15;5.45;;;8.80;99.90;;;;;;5091477;28;20235;-65
2022/09/23 06:36:13;;;;;;;6.55;5.95;;;8.90;99.90;;;;;;5088050;28;20179;-66
2022/09/23 06:38:44;;;;;;;6.60;6.00;;;8.90;99.90;;;;;;5091171;28;20209;-65
2022/09/23 06:41:12;;;;;;;7.82;6.63;;;8.90;99.90;;;;;;5089078;28;20214;-65
2022/09/23 06:43:40;;;;;;;8.27;6.13;;;9.00;99.90;;;;;;5091105;28;20207;-65
2022/09/23 06:46:14;;;;;;;10.98;6.60;;;9.00;99.90;;;;;;5089418;28;20569;-65
2022/09/23 06:48:43;;;;;;;8.70;7.55;;;9.00;99.90;;;;;;5090997;28;20183;-66
2022/09/23 06:51:17;;;;;;;8.38;6.30;;;9.00;99.90;;;;;;5087666;28;20664;-66
2022/09/23 06:53:48;;;;;;;6.55;5.85;;;9.00;99.90;;;;;;5087083;28;20203;-66
2022/09/23 06:56:18;;;;;;;7.97;7.18;;;9.00;99.90;;;;;;5089955;28;20798;-67
2022/09/23 06:58:46;;;;;;;7.40;6.22;;;9.10;99.90;;;;;;5090677;28;20188;-64
2022/09/23 07:01:16;;;;;;;6.70;6.10;;;9.20;99.90;;;;;;5088681;28;20207;-64
2022/09/23 07:03:47;;;;;;;8.77;5.70;;;9.30;99.90;;;;;;5081515;28;20212;-64
2022/09/23 07:06:15;;;;;;;6.32;5.72;;;9.40;99.90;;;;;;5069407;28;20300;-64
2022/09/23 07:08:45;;;;;;;8.85;6.38;;;9.50;99.90;;;;;;5087161;28;20531;-65
2022/09/23 07:11:18;;;;;;;8.98;6.45;;;9.60;99.90;;;;;;5090251;28;20207;-64
2022/09/23 07:13:46;;;;;;;7.50;6.80;;;9.70;99.90;;;;;;5092245;28;20283;-65
2022/09/23 07:16:13;;;;;;;7.53;5.85;;;9.80;99.90;;;;;;5093151;28;20248;-65
2022/09/23 07:18:43;;;;;;;6.75;5.82;;;9.90;99.90;;;;;;5093584;28;20207;-65
2022/09/23 07:21:13;;;;;;;7.35;5.75;;;9.90;99.90;;;;;;5091466;28;20191;-65
2022/09/23 07:23:41;;;;;;;8.13;6.25;;;10.10;99.90;;;;;;5093377;28;20192;-64
2022/09/23 07:26:10;;;;;;;7.30;5.97;;;10.20;99.90;;;;;;5092638;28;20542;-64
2022/09/23 07:28:40;;;;;;;6.03;5.53;;;10.20;99.90;;;;;;5092992;28;20199;-64
2022/09/23 07:31:14;;;;;;;7.30;6.70;;;10.30;99.90;;;;;;5092663;28;20298;-65
2022/09/23 07:33:42;;;;;;;6.35;5.75;;;10.50;99.90;;;;;;5092842;28;20566;-65
2022/09/23 07:36:12;;;;;;;7.22;6.57;;;10.40;99.90;;;;;;5092979;28;20552;-64
2022/09/23 07:38:40;;;;;;;8.20;6.65;;;10.40;99.90;;;;;;5091539;28;20199;-64
2022/09/23 07:41:11;;;;;;;6.85;6.25;;;10.30;99.90;;;;;;5093405;28;20248;-64
2022/09/23 07:43:40;;;;;;;10.32;7.00;;;10.30;99.90;;;;;;5093144;28;20192;-65
2022/09/23 07:46:16;;;;;;;8.48;7.60;;;10.50;99.90;;;;;;5088641;28;20258;-66
2022/09/23 07:48:45;;;;;;;7.15;6.32;;;10.50;99.90;;;;;;5085633;28;20245;-64
2022/09/23 07:51:17;;;;;;;6.88;6.38;;;10.50;99.90;;;;;;5093252;28;20400;-65
2022/09/23 07:53:47;;;;;;;9.10;7.32;;;10.50;99.90;;;;;;5092015;28;20207;-65
2022/09/23 07:56:17;;;;;;;12.30;7.30;;;10.70;99.90;;;;;;5081114;28;20215;-65
2022/09/23 07:58:58;;;;;;;7.40;6.07;;;10.90;99.90;;;;;;5092012;28;20204;-65
2022/09/23 08:01:27;;;;;;;7.47;6.53;;;10.80;99.90;;;;;;5088463;28;20191;-65
2022/09/23 08:03:57;;;;;;;8.43;5.80;;;10.90;99.90;;;;;;5084426;28;20682;-65
2022/09/23 08:06:25;;;;;;;7.82;6.20;;;11.00;99.90;;;;;;5091938;28;20219;-65
2022/09/23 08:08:53;;;;;;;6.38;5.88;;;11.30;99.90;;;;;;5092243;28;20203;-65
2022/09/23 08:11:23;;;;;;;7.28;6.47;;;11.30;99.90;;;;;;5092371;28;20191;-65
2022/09/23 08:13:53;;;;;;;10.93;6.53;;;11.20;99.90;;;;;;5092166;28;20203;-65
2022/09/23 08:16:21;;;;;;;7.78;6.97;;;11.30;99.90;;;;;;5091509;28;20206;-65
2022/09/23 08:18:49;;;;;;;6.85;5.72;;;11.20;99.90;;;;;;5092401;28;20196;-65
2022/09/23 08:21:20;;;;;;;5.93;5.43;;;11.00;99.90;;;;;;5092324;28;20268;-65
2022/09/23 08:23:48;;;;;;;6.78;5.75;;;11.20;99.90;;;;;;5092663;28;20193;-66
2022/09/23 08:26:16;;;;;;;7.88;5.57;;;11.40;99.90;;;;;;5076116;28;20199;-66
2022/09/23 08:28:44;;;;;;;6.05;5.40;;;11.50;99.90;;;;;;5092039;28;20199;-66
2022/09/23 08:31:14;;;;;;;7.07;5.88;;;11.80;99.90;;;;;;5092340;28;20187;-66
2022/09/23 08:33:42;;;;;;;5.03;4.72;;;11.80;99.90;;;;;;5091958;28;20249;-65
2022/09/23 08:36:10;;;;;;;5.88;5.45;;;11.80;99.90;;;;;;5091752;28;20195;-65
2022/09/23 08:38:38;;;;;;;5.05;4.53;;;12.10;99.90;;;;;;5091730;28;20200;-65
2022/09/23 08:41:12;;;;;;;4.97;4.57;;;12.50;99.90;;;;;;5091801;28;20196;-65
2022/09/23 08:43:47;;;;;;;5.38;4.97;;;12.60;99.90;;;;;;5091979;28;20540;-65
2022/09/23 08:46:21;;;;;;;8.48;5.40;;;12.50;99.90;;;;;;5091820;28;20230;-65
2022/09/23 08:48:50;;;;;;;5.50;5.05;;;12.20;99.90;;;;;;5092141;28;20262;-65
2022/09/23 08:51:44;;;;;;;5.45;5.00;;;12.40;99.90;;;;;;5090196;28;20199;-66
2022/09/23 08:54:16;;;;;;;6.00;5.57;;;12.70;99.90;;;;;;5091841;28;20201;-66
2022/09/23 08:56:47;;;;;;;6.13;5.63;;;13.10;99.90;;;;;;5070046;28;20227;-65
2022/09/23 08:59:21;;;;;;;5.17;4.60;;;13.40;99.90;;;;;;5085611;28;20590;-65
2022/09/23 09:01:53;;;;;;;37.23;6.57;;;13.80;99.90;;;;;;5089452;28;21247;-65
2022/09/23 09:04:26;;;;;;;9.90;5.00;;;14.10;99.90;;;;;;5081762;28;20611;-66
2022/09/23 09:07:00;;;;;;;5.90;5.40;;;13.90;99.90;;;;;;5091421;28;20645;-66
2022/09/23 09:09:30;;;;;;;6.50;5.90;;;13.70;99.90;;;;;;5090038;28;21003;-66
2022/09/23 09:12:04;;;;;;;6.60;5.13;;;13.80;99.90;;;;;;5090817;28;20584;-66
2022/09/23 09:14:43;;;;;;;5.38;4.97;;;13.80;99.90;;;;;;5089109;28;20640;-65
2022/09/23 09:17:19;;;;;;;5.27;4.87;;;13.60;99.90;;;;;;5090429;28;20551;-65
2022/09/23 09:19:56;;;;;;;5.57;5.17;;;14.00;99.90;;;;;;5074444;28;20613;-65
2022/09/23 09:22:46;;;;;;;6.73;6.13;;;13.90;99.90;;;;;;5089968;28;20570;-66
2022/09/23 09:25:33;;;;;;;6.80;5.93;;;13.80;99.90;;;;;;5090209;28;20627;-66
2022/09/23 09:28:21;;;;;;;5.93;5.07;;;13.90;99.90;;;;;;5090777;28;20661;-66
2022/09/23 09:30:55;;;;;;;9.50;5.20;;;14.00;99.90;;;;;;5091207;28;20579;-66
2022/09/23 09:33:32;;;;;;;7.47;5.73;;;14.20;99.90;;;;;;5090664;28;20579;-66
2022/09/23 09:36:20;;;;;;;8.23;5.40;;;14.10;99.90;;;;;;5089803;28;20966;-65
2022/09/23 09:38:49;;;;;;;4.97;4.60;;;14.20;99.90;;;;;;5088533;28;20670;-64
2022/09/23 09:41:20;;;;;;;6.37;5.40;;;14.50;99.90;;;;;;5090757;28;20604;-64
2022/09/23 09:43:56;;;;;;;6.27;5.67;;;14.50;99.90;;;;;;5084707;28;21106;-64
2022/09/23 09:46:53;;;;;;;7.97;4.70;;;14.60;99.90;;;;;;5091090;28;21125;-66
2022/09/23 09:49:32;;;;;;;5.27;4.87;;;14.50;99.90;;;;;;5089582;28;20584;-66
2022/09/23 09:52:22;;;;;;;6.60;6.00;;;14.50;99.90;;;;;;5088302;28;20609;-66
2022/09/23 09:54:50;;;;;;;5.20;4.70;;;14.60;99.90;;;;;;5087951;28;20602;-64
2022/09/23 09:57:26;;;;;;;10.70;4.57;;;14.90;99.90;;;;;;5087447;28;21060;-64
2022/09/23 09:59:54;;;;;;;5.77;4.80;;;14.90;99.90;;;;;;5086393;28;20603;-64
2022/09/23 10:02:52;;;;;;;3.93;3.73;;;15.10;99.90;;;;;;5087833;28;20629;-64
2022/09/23 10:05:27;;;;;;;4.83;4.43;;;15.20;99.90;;;;;;5087282;28;20605;-66
2022/09/23 10:07:55;;;;;;;4.10;3.80;;;15.50;99.90;;;;;;5087476;28;21013;-66
2022/09/23 10:10:25;;;;;;;6.73;4.03;;;15.50;99.90;;;;;;5089180;28;20611;-66
2022/09/23 10:12:53;;;;;;;4.67;4.10;;;15.50;99.90;;;;;;5090285;28;20628;-66
2022/09/23 10:15:31;;;;;;;6.00;3.73;;;15.80;99.90;;;;;;5088143;28;20938;-66
2022/09/23 10:18:01;;;;;;;4.20;3.87;;;16.00;99.90;;;;;;5086844;28;20936;-66
2022/09/23 10:20:37;;;;;;;3.83;3.53;;;16.00;99.90;;;;;;5088457;28;21193;-66
2022/09/23 10:23:08;;;;;;;5.10;3.63;;;15.90;99.90;;;;;;5088729;28;20583;-66
2022/09/23 10:25:37;;;;;;;3.60;3.40;;;16.00;99.90;;;;;;5090871;28;20589;-66
2022/09/23 10:28:30;;;;;;;6.80;3.80;;;16.10;99.90;;;;;;5089624;28;20689;-66
2022/09/23 10:31:05;;;;;;;3.70;3.47;;;16.10;99.90;;;;;;5090829;28;20629;-66
2022/09/23 10:33:34;;;;;;;3.30;3.00;;;16.40;99.90;;;;;;5089299;28;20605;-66
2022/09/23 10:36:06;;;;;;;3.60;3.30;;;16.20;99.90;;;;;;5091353;28;20582;-66
2022/09/23 10:38:34;;;;;;;3.33;3.03;;;16.30;99.90;;;;;;5089516;28;20584;-66
2022/09/23 10:46:53;;;;;;;3.73;3.50;;;16.70;99.90;;;;;;5093008;28;20579;-66
2022/09/23 10:49:45;;;;;;;4.60;3.53;;;17.10;99.90;;;;;;5093536;28;20997;-66
2022/09/23 10:52:30;;;;;;;5.03;3.10;;;17.60;99.90;;;;;;5094326;28;20583;-66
2022/09/23 10:55:12;;;;;;;3.30;3.10;;;17.70;99.90;;;;;;5093989;28;20590;-66
2022/09/23 10:57:52;;;;;;;3.77;3.40;;;18.20;99.90;;;;;;5093163;28;20663;-66
2022/09/23 11:00:26;;;;;;;4.67;3.87;;;18.40;99.90;;;;;;5092328;28;20605;-64
2022/09/23 11:03:25;;;;;;;5.07;4.57;;;18.10;99.90;;;;;;5082633;28;20681;-64
2022/09/23 11:06:05;;;;;;;4.80;4.27;;;19.10;99.90;;;;;;5074995;28;20622;-65
2022/09/23 11:08:55;;;;;;;6.87;4.57;;;19.00;99.90;;;;;;5092182;28;20648;-65
2022/09/23 11:11:32;;;;;;;4.37;3.83;;;19.20;99.90;;;;;;5091083;28;20617;-65
2022/09/23 11:14:16;;;;;;;4.07;3.77;;;19.40;99.90;;;;;;5088721;28;20605;-65
2022/09/23 11:16:57;;;;;;;4.33;3.97;;;19.90;99.90;;;;;;5087376;28;21172;-65
2022/09/23 11:19:56;;;;;;;4.60;3.70;;;20.20;99.90;;;;;;5090212;28;20612;-65
2022/09/23 11:22:36;;;;;;;4.77;3.60;;;20.70;99.90;;;;;;5059079;28;20983;-65
2022/09/23 11:25:30;;;;;;;3.87;3.67;;;20.70;99.90;;;;;;5090836;28;21019;-65
2022/09/23 11:28:35;;;;;;;4.60;4.30;;;21.00;99.90;;;;;;5091696;28;21074;-65
2022/09/23 11:31:19;;;;;;;6.73;3.90;;;20.90;99.90;;;;;;5086513;28;21222;-65
2022/09/23 11:34:04;;;;;;;4.63;3.90;;;20.20;99.90;;;;;;5090875;28;20660;-65
2022/09/23 11:36:37;;;;;;;4.47;4.07;;;20.90;99.90;;;;;;5088365;28;20621;-65
2022/09/23 11:39:17;;;;;;;5.00;4.70;;;20.50;99.90;;;;;;5091241;28;20670;-65
2022/09/23 11:41:49;;;;;;;3.63;3.30;;;21.40;99.90;;;;;;5091269;28;20609;-65
2022/09/23 11:44:22;;;;;;;4.50;4.20;;;22.10;99.90;;;;;;5091925;28;20617;-65
2022/09/23 11:46:56;;;;;;;4.17;3.97;;;22.60;99.90;;;;;;5090171;28;20644;-64
2022/09/23 11:49:30;;;;;;;5.00;3.70;;;22.70;99.90;;;;;;5090411;28;20648;-64
2022/09/23 11:52:06;;;;;;;4.23;3.20;;;21.60;99.90;;;;;;5093050;28;20597;-65
2022/09/23 11:54:40;;;;;;;4.57;4.30;;;21.70;99.90;;;;;;5089799;28;20612;-64
2022/09/23 11:57:24;;;;;;;6.00;4.23;;;21.70;99.90;;;;;;5090238;28;20648;-64
2022/09/23 11:59:59;;;;;;;3.90;3.70;;;21.30;99.90;;;;;;5092638;28;20945;-64
2022/09/23 12:02:32;;;;;;;4.40;3.63;;;21.80;99.90;;;;;;5092494;28;21162;-64
2022/09/23 12:05:05;;;;;;;4.10;3.80;;;21.40;99.90;;;;;;5090463;28;20660;-64
2022/09/23 12:07:44;;;;;;;4.70;3.77;;;21.40;99.90;;;;;;5092528;28;20610;-64
2022/09/23 12:10:12;;;;;;;5.13;3.83;;;21.30;99.90;;;;;;5091542;28;20643;-64
2022/09/23 12:12:51;;;;;;;4.57;4.17;;;22.10;99.90;;;;;;5092612;28;21218;-64
2022/09/23 12:15:30;;;;;;;3.97;3.77;;;22.00;99.90;;;;;;5090512;28;20613;-64
2022/09/23 12:18:28;;;;;;;3.83;3.53;;;22.10;99.90;;;;;;5072754;28;20561;-64
2022/09/23 12:21:41;;;;;;;3.93;3.67;;;22.40;99.90;;;;;;5083551;28;20609;-64
2022/09/23 12:24:44;;;;;;;3.60;3.40;;;22.90;99.90;;;;;;5068932;28;20641;-64
2022/09/23 12:27:23;;;;;;;4.60;3.97;;;22.70;99.90;;;;;;5087050;28;20664;-64
2022/09/23 12:29:56;;;;;;;4.67;4.27;;;22.10;99.90;;;;;;5090888;28;20910;-64
2022/09/23 12:32:25;;;;;;;5.03;3.60;;;22.90;99.90;;;;;;5090530;28;20623;-64
2022/09/23 12:34:54;;;;;;;6.10;3.63;;;21.80;99.90;;;;;;5102135;28;21010;-64
2022/09/23 12:37:28;;;;;;;3.90;3.50;;;22.20;99.90;;;;;;5093537;28;20616;-64
2022/09/23 12:40:02;;;;;;;5.33;3.50;;;22.30;99.90;;;;;;5092110;28;20643;-64
2022/09/23 12:42:30;;;;;;;3.30;3.20;;;22.60;99.90;;;;;;5092400;28;21114;-64
2022/09/23 12:45:31;;;;;;;3.13;3.00;;;22.60;99.90;;;;;;5091614;28;21029;-64
2022/09/23 12:48:02;;;;;;;4.80;3.37;;;21.90;99.90;;;;;;5081870;28;21003;-64
2022/09/23 12:50:50;;;;;;;3.13;2.93;;;21.90;99.90;;;;;;5090323;28;20668;-64
2022/09/23 12:53:56;;;;;;;3.97;3.60;;;21.90;99.90;;;;;;5088476;28;20597;-64
2022/09/23 12:56:49;;;;;;;3.90;3.60;;;22.00;99.90;;;;;;5088776;28;21276;-64
2022/09/23 12:59:26;;;;;;;3.23;2.90;;;21.90;99.90;;;;;;5088216;28;20622;-64
2022/09/23 13:01:54;;;;;;;5.77;3.87;;;21.80;99.90;;;;;;5089725;28;21044;-64
2022/09/23 13:07:31;;;;;;;3.20;3.00;;;21.80;99.90;;;;;;5081984;28;21081;-65
2022/09/23 13:10:06;;;;;;;3.70;3.50;;;21.70;99.90;;;;;;5089998;28;20641;-65
2022/09/23 13:12:38;;;;;;;4.90;3.40;;;21.40;99.90;;;;;;5089859;28;20647;-65
2022/09/23 13:15:17;;;;;;;3.30;3.20;;;21.20;99.90;;;;;;5073206;28;20593;-65
2022/09/23 13:17:45;;;;;;;3.70;3.17;;;20.90;99.90;;;;;;5092266;28;20620;-65
2022/09/23 13:20:37;;;;;;;3.90;3.30;;;20.90;99.90;;;;;;5089768;28;20621;-65
2022/09/23 13:23:21;;;;;;;3.80;3.40;;;20.80;99.90;;;;;;5090029;28;20635;-65
2022/09/23 13:25:51;;;;;;;3.67;3.33;;;20.50;99.90;;;;;;5078151;28;20625;-65
2022/09/23 13:28:31;;;;;;;3.50;3.33;;;20.40;99.90;;;;;;5088610;28;21167;-64
2022/09/23 13:31:04;;;;;;;3.17;2.97;;;20.50;99.90;;;;;;5091061;28;20696;-64
2022/09/23 13:33:38;;;;;;;3.30;3.10;;;20.50;99.90;;;;;;5089794;28;20613;-64
2022/09/23 13:36:14;;;;;;;4.47;3.20;;;20.70;99.90;;;;;;5091653;28;20611;-64